| Record Date MM/DD/YYYY | Record Time HH:MM:SS | Record Julian Date NNN day of the year | Air Temperature Max (Degrees Fahrenheit F) | Time Max Air Temperature HH:MM:SS This is the time of max air temp for the prior hour interval listed for record [Time]. | Air Temperature Min (Degrees Fahrenheit F) | Time Min Air Temperature HH:MM:SS This is the time of min air temp for the prior hour interval listed for record [Time]. | Air Temperature Observed (Degrees Fahrenheit F) This is an instantaneous reading at the record [Time]. | Relative Humidity Max (Percent) | Time Max Relative Humidity HH:MM:SS This is the time of max relative humidity for the prior hour interval listed for record [Time]. | Relative Humidity Min (Percent) | Time Min Relative Humidity HH:MM:SS This is the time of min relative humidity for the prior hour interval listed for record [Time]. | Relative Humidity Observed (Percent) This is an instantaneous reading at the record [Time]. | Precipitation (Inches n.nn) rain fall that occurred during the prior hour interval listed for record [Time]. | Wind Speed (Miles Per Hour) Resultant Speed that occurred during the prior hour interval listed for record [Time]. | Wind Direction (Degrees) Resultant Direction that occurred during the prior hour interval listed for record [Time]. | Solar Radiation (Langley's) that occurred during the prior hour interval listed for record [Time]. | Soil Temperature Average at 2 inch depth (Degrees Fahrenheit F) that occurred during the prior hour interval listed for record [Time]. | Soil Temperature Observed at 2 inch depth (Degrees Fahrenheit F) This is an instantaneous reading at the record [Time]. | Soil Temperature Average at 4 inch depth (Degrees Fahrenheit F) that occurred during the prior hour interval listed for record [Time]. | Soil Temperature Observed at 4 inch depth (Degrees Fahrenheit F) This is an instantaneous reading at the record [Time]. |
|---|---|---|---|---|---|---|---|---|---|---|---|---|---|---|---|---|---|---|---|---|
| 08/27/2026 | 0:00:00 | 239 | 74 | 23:36:04 | 73 | 23:00:00 | 74 | 95 | 23:21:04 | 91 | 23:37:00 | 92 | 0 | 2.4 | 255 | 0 | 82 | 82 | 83 | 83 |
| 08/27/2026 | 1:00:00 | 239 | 74 | 0:00:01 | 73 | 0:46:00 | 73 | 97 | 0:59:05 | 92 | 0:00:03 | 97.2 | 0 | 1.3 | 84 | 0 | 82 | 82 | 83 | 83 |
| 08/27/2026 | 2:00:00 | 239 | 73 | 1:02:03 | 72 | 1:45:04 | 72 | 98 | 1:59:00 | 97 | 1:01:01 | 98.1 | 0 | 1.7 | 46 | 0 | 81 | 81 | 82 | 82 |
| 08/27/2026 | 3:00:00 | 239 | 72 | 2:00:01 | 72 | 2:56:03 | 72 | 99 | 2:49:05 | 98 | 2:01:04 | 98.7 | 0 | 0.8 | 157 | 0 | 81 | 81 | 82 | 82 |
| 08/27/2026 | 4:00:00 | 239 | 72 | 3:54:03 | 72 | 3:04:02 | 72 | 99 | 3:53:05 | 99 | 3:07:01 | 98.9 | 0 | 0.8 | 50 | 0 | 81 | 81 | 82 | 82 |
| 08/27/2026 | 5:00:00 | 239 | 72 | 4:23:02 | 72 | 4:47:02 | 72 | 99 | 4:00:01 | 98 | 4:24:00 | 98.4 | 0 | 0.9 | 106 | 0 | 81 | 81 | 82 | 82 |
| 08/27/2026 | 6:00:00 | 239 | 73 | 5:54:04 | 72 | 5:14:00 | 73 | 99 | 5:25:05 | 98 | 5:57:03 | 98.1 | 0 | 0.6 | 36 | 0 | 81 | 81 | 82 | 81 |
| 08/27/2026 | 7:00:00 | 239 | 73 | 6:57:00 | 73 | 6:00:02 | 73 | 98 | 6:00:05 | 96 | 6:58:02 | 96.1 | 0 | 3.4 | 193 | 5 | 81 | 81 | 81 | 81 |
| 08/27/2026 | 8:00:00 | 239 | 76 | 7:59:04 | 73 | 7:03:05 | 76 | 97 | 7:01:03 | 90 | 7:57:04 | 89.9 | 0 | 2.2 | 197 | 12 | 81 | 81 | 81 | 81 |
| 08/27/2026 | 9:00:00 | 239 | 77 | 8:52:02 | 75 | 8:08:00 | 76 | 92 | 8:12:03 | 85 | 8:45:05 | 85.2 | 0 | 2.8 | 261 | 17 | 81 | 81 | 81 | 81 |
| 08/27/2026 | 10:00:00 | 239 | 79 | 9:58:00 | 76 | 9:00:03 | 79 | 90 | 9:24:02 | 83 | 9:58:02 | 83.4 | 0 | 3.4 | 267 | 25 | 82 | 82 | 82 | 82 |
| 08/27/2026 | 11:00:00 | 239 | 82 | 10:57:03 | 79 | 10:01:04 | 82 | 87 | 10:16:00 | 73 | 10:58:02 | 74.13 | 0 | 4.8 | 287 | 42 | 82 | 83 | 82 | 82 |
| 08/27/2026 | 12:00:00 | 239 | 85 | 11:51:03 | 82 | 11:03:02 | 84 | 81 | 11:32:02 | 70 | 11:52:02 | 72.99 | 0 | 5.0 | 312 | 57 | 83 | 84 | 82 | 83 |
| 08/27/2026 | 13:00:00 | 239 | 86 | 12:56:04 | 84 | 12:11:01 | 86 | 78 | 12:05:03 | 68 | 12:57:00 | 70.27 | 0 | 4.2 | 339 | 49 | 85 | 85 | 83 | 83 |
| 08/27/2026 | 14:00:00 | 239 | 89 | 13:58:00 | 86 | 13:15:03 | 88 | 76 | 13:04:01 | 63 | 13:47:05 | 64.32 | 0 | 3.5 | 332 | 56 | 86 | 86 | 84 | 84 |
| 08/27/2026 | 15:00:00 | 239 | 90 | 14:59:02 | 86 | 14:30:02 | 90 | 71 | 14:03:04 | 61 | 14:54:04 | 63.8 | 0 | 3.8 | 325 | 38 | 87 | 87 | 85 | 85 |
| 08/27/2026 | 16:00:00 | 239 | 90 | 15:02:02 | 87 | 15:16:04 | 87 | 68 | 15:22:03 | 59 | 15:04:02 | 63.48 | 0 | 3.9 | 9 | 24 | 87 | 87 | 85 | 85 |
| 08/27/2026 | 17:00:00 | 239 | 90 | 16:21:01 | 87 | 16:01:01 | 88 | 65 | 16:00:04 | 57 | 16:21:02 | 62.94 | 0 | 2.9 | 349 | 22 | 87 | 87 | 85 | 85 |
| 08/27/2026 | 18:00:00 | 239 | 88 | 17:00:01 | 85 | 18:00:00 | 85 | 78 | 17:53:05 | 62 | 17:01:05 | 75.87 | 0 | 1.3 | 3 | 6 | 86 | 86 | 85 | 85 |
| 08/27/2026 | 19:00:00 | 239 | 85 | 18:00:00 | 78 | 18:59:05 | 79 | 93 | 18:59:00 | 75 | 18:00:03 | 93 | 0 | 0.2 | 70 | 1 | 86 | 85 | 85 | 85 |
| 08/27/2026 | 20:00:00 | 239 | 78 | 19:00:00 | 76 | 19:59:05 | 76 | 97 | 19:55:05 | 93 | 19:00:05 | 96.4 | 0 | 0.0 | 138 | 0 | 85 | 84 | 85 | 85 |
| 08/27/2026 | 21:00:00 | 239 | 77 | 20:54:01 | 75 | 20:32:05 | 76 | 98 | 20:17:00 | 93 | 20:56:03 | 93.9 | 0 | 0.7 | 141 | 0 | 84 | 83 | 84 | 84 |
| 08/27/2026 | 22:00:00 | 239 | 78 | 21:57:04 | 76 | 21:07:01 | 78 | 97 | 21:42:05 | 92 | 21:59:04 | 92.3 | 0 | 0.8 | 321 | 0 | 83 | 83 | 84 | 84 |
| 08/27/2026 | 23:00:00 | 239 | 78 | 22:23:02 | 77 | 22:47:03 | 77 | 92 | 22:00:03 | 90 | 23:00:00 | 89.9 | 0 | 2.6 | 241 | 0 | 83 | 82 | 83 | 83 |
| 08/28/2026 | 0:00:00 | 240 | 78 | 23:01:01 | 76 | 23:50:01 | 76 | 95 | 23:52:04 | 90 | 23:00:01 | 93.8 | 0 | 1.4 | 291 | 0 | 82 | 82 | 83 | 83 |
| 08/28/2026 | 1:00:00 | 240 | 76 | 0:00:04 | 75 | 0:56:00 | 75 | 97 | 0:58:02 | 94 | 0:02:02 | 96.6 | 0 | 1.5 | 318 | 0 | 82 | 82 | 83 | 83 |
| 08/28/2026 | 2:00:00 | 240 | 75 | 1:00:00 | 74 | 1:59:02 | 74 | 98 | 2:00:00 | 97 | 1:04:03 | 98.3 | 0 | 1.6 | 342 | 0 | 82 | 81 | 82 | 82 |
| 08/28/2026 | 3:00:00 | 240 | 74 | 2:00:00 | 73 | 2:59:05 | 73 | 99 | 2:54:01 | 98 | 2:00:01 | 99 | 0 | 0.3 | 348 | 0 | 81 | 81 | 82 | 82 |
| 08/28/2026 | 4:00:00 | 240 | 73 | 3:35:04 | 73 | 3:53:00 | 73 | 99 | 3:21:03 | 99 | 3:47:01 | 98.9 | 0 | 0.3 | 304 | 0 | 81 | 81 | 82 | 82 |
| 08/28/2026 | 5:00:00 | 240 | 73 | 4:59:02 | 72 | 4:26:02 | 73 | 99 | 4:36:01 | 99 | 4:24:03 | 98.9 | 0 | 1.2 | 283 | 0 | 80 | 80 | 82 | 81 |
| 08/28/2026 | 6:00:00 | 240 | 73 | 5:09:05 | 72 | 5:50:02 | 73 | 99 | 5:59:03 | 98 | 5:16:00 | 98.9 | 0 | 0.4 | 298 | 1 | 80 | 80 | 81 | 81 |
| 08/28/2026 | 7:00:00 | 240 | 77 | 7:00:00 | 73 | 6:00:02 | 77 | 99 | 6:00:01 | 91 | 6:59:03 | 90.8 | 0 | 1.5 | 309 | 10 | 80 | 80 | 81 | 81 |
| 08/28/2026 | 8:00:00 | 240 | 81 | 7:57:02 | 77 | 7:00:00 | 80 | 91 | 7:02:02 | 79 | 7:58:01 | 79.22 | 0 | 2.7 | 30 | 27 | 80 | 81 | 81 | 81 |
| 08/28/2026 | 9:00:00 | 240 | 85 | 9:00:00 | 80 | 8:00:05 | 85 | 81 | 8:18:02 | 71 | 8:55:00 | 71.98 | 0 | 2.9 | 54 | 42 | 81 | 82 | 81 | 81 |
| 08/28/2026 | 10:00:00 | 240 | 87 | 9:53:04 | 84 | 9:06:05 | 86 | 74 | 9:03:00 | 63 | 9:58:00 | 65 | 0 | 4.2 | 24 | 56 | 83 | 84 | 82 | 82 |
| 08/28/2026 | 11:00:00 | 240 | 89 | 10:32:02 | 86 | 10:00:03 | 88 | 69 | 10:02:05 | 48 | 10:43:01 | 55.34 | 0 | 5.6 | 360 | 60 | 84 | 85 | 83 | 83 |
| 08/28/2026 | 12:00:00 | 240 | 91 | 11:53:04 | 88 | 11:00:00 | 90 | 58 | 11:00:01 | 42 | 11:55:04 | 42.44 | 0 | 7.8 | 2 | 72 | 86 | 86 | 83 | 84 |
| 08/28/2026 | 13:00:00 | 240 | 92 | 12:15:01 | 89 | 12:26:01 | 90 | 48 | 12:05:02 | 41 | 12:06:05 | 42.51 | 0 | 7.1 | 24 | 60 | 86 | 87 | 84 | 84 |
| 08/28/2026 | 14:00:00 | 240 | 91 | 13:56:01 | 90 | 13:19:03 | 91 | 47 | 13:05:01 | 37 | 13:50:01 | 39.01 | 0 | 6.6 | 16 | 51 | 87 | 87 | 85 | 85 |
| 08/28/2026 | 15:00:00 | 240 | 91 | 14:58:03 | 90 | 14:14:02 | 91 | 43 | 14:22:02 | 35 | 15:00:00 | 34.57 | 0 | 6.9 | 353 | 44 | 87 | 87 | 85 | 85 |
| 08/28/2026 | 16:00:00 | 240 | 92 | 15:58:00 | 91 | 15:13:05 | 92 | 42 | 15:05:02 | 32 | 15:59:03 | 33.71 | 0 | 6.0 | 21 | 37 | 87 | 87 | 85 | 85 |
| 08/28/2026 | 17:00:00 | 240 | 92 | 16:00:00 | 90 | 17:00:00 | 90 | 40 | 16:32:02 | 32 | 16:04:00 | 37.74 | 0 | 4.6 | 10 | 30 | 86 | 86 | 85 | 85 |
| 08/28/2026 | 18:00:00 | 240 | 90 | 17:08:04 | 86 | 18:00:00 | 86 | 51 | 17:58:04 | 37 | 17:07:03 | 47.26 | 0 | 3.0 | 8 | 12 | 86 | 85 | 85 | 85 |
| 08/28/2026 | 19:00:00 | 240 | 86 | 18:00:01 | 76 | 19:00:00 | 76 | 81 | 18:51:05 | 49 | 18:00:00 | 79.21 | 0 | 0.3 | 17 | 1 | 85 | 84 | 85 | 85 |
| 08/28/2026 | 20:00:00 | 240 | 76 | 19:00:00 | 74 | 19:38:02 | 75 | 85 | 19:36:03 | 78 | 19:58:05 | 78.27 | 0 | 0.7 | 283 | 0 | 84 | 83 | 84 | 84 |
| 08/28/2026 | 21:00:00 | 240 | 75 | 20:05:02 | 72 | 20:51:03 | 72 | 88 | 20:45:00 | 77 | 20:08:04 | 85.4 | 0 | 0.1 | 235 | 0 | 83 | 82 | 84 | 83 |
| 08/28/2026 | 22:00:00 | 240 | 72 | 21:00:01 | 71 | 21:58:01 | 71 | 88 | 21:47:00 | 85 | 21:00:05 | 88.1 | 0 | 0.1 | 158 | 0 | 82 | 82 | 83 | 83 |
| 08/28/2026 | 23:00:00 | 240 | 72 | 22:06:04 | 70 | 22:49:05 | 70 | 90 | 22:50:04 | 83 | 22:07:03 | 89.7 | 0 | 0.4 | 203 | 0 | 81 | 81 | 83 | 82 |
| 08/29/2026 | 0:00:00 | 241 | 71 | 23:07:02 | 69 | 23:59:00 | 69 | 91 | 23:59:03 | 87 | 23:14:01 | 90.6 | 0 | 0.2 | 195 | 0 | 81 | 80 | 82 | 82 |
| 08/29/2026 | 1:00:00 | 241 | 70 | 0:34:05 | 69 | 0:06:05 | 69 | 92 | 0:03:02 | 87 | 0:35:02 | 89.1 | 0 | 0.7 | 189 | 0 | 80 | 80 | 82 | 81 |
| 08/29/2026 | 2:00:00 | 241 | 70 | 1:19:03 | 69 | 1:35:05 | 69 | 91 | 1:53:04 | 86 | 1:23:04 | 90.1 | 0 | 0.5 | 199 | 0 | 80 | 79 | 81 | 81 |
| 08/29/2026 | 3:00:00 | 241 | 70 | 2:15:02 | 68 | 2:59:02 | 68 | 94 | 2:58:01 | 88 | 2:14:00 | 93.5 | 0 | 0.3 | 298 | 0 | 79 | 79 | 81 | 81 |
| 08/29/2026 | 4:00:00 | 241 | 68 | 3:03:05 | 67 | 3:45:02 | 67 | 98 | 3:55:01 | 94 | 3:00:01 | 97.2 | 0 | 0.1 | 296 | 0 | 79 | 78 | 80 | 80 |
| 08/29/2026 | 5:00:00 | 241 | 67 | 4:42:00 | 66 | 5:00:00 | 66 | 97 | 4:00:00 | 95 | 4:54:03 | 95.4 | 0 | 0.5 | 292 | 0 | 78 | 78 | 80 | 80 |
| 08/29/2026 | 6:00:00 | 241 | 66 | 5:00:00 | 66 | 5:48:01 | 66 | 98 | 5:51:01 | 95 | 5:00:02 | 97.5 | 0 | 0.3 | 295 | 1 | 78 | 78 | 80 | 79 |
| 08/29/2026 | 7:00:00 | 241 | 72 | 6:59:05 | 66 | 6:00:01 | 72 | 98 | 6:02:02 | 86 | 6:59:04 | 86.4 | 0 | 1.1 | 299 | 11 | 78 | 78 | 79 | 79 |
| 08/29/2026 | 8:00:00 | 241 | 79 | 7:59:05 | 72 | 7:00:01 | 79 | 87 | 7:02:01 | 69 | 7:59:02 | 70.08 | 0 | 1.6 | 13 | 28 | 78 | 79 | 79 | 79 |
| 08/29/2026 | 9:00:00 | 241 | 84 | 8:54:01 | 79 | 8:00:01 | 84 | 73 | 8:02:00 | 61 | 8:48:00 | 63.19 | 0 | 1.7 | 29 | 44 | 79 | 80 | 79 | 80 |
| 08/29/2026 | 10:00:00 | 241 | 88 | 10:00:00 | 84 | 9:00:00 | 88 | 66 | 9:25:03 | 57 | 9:55:03 | 59.33 | 0 | 1.9 | 158 | 58 | 81 | 83 | 80 | 81 |
| 08/29/2026 | 11:00:00 | 241 | 90 | 10:42:05 | 87 | 10:12:01 | 89 | 60 | 10:00:01 | 39 | 10:29:05 | 47.83 | 0 | 4.5 | 314 | 67 | 84 | 84 | 81 | 82 |
| 08/29/2026 | 12:00:00 | 241 | 91 | 11:49:01 | 89 | 11:10:04 | 90 | 54 | 11:24:04 | 43 | 11:45:04 | 44.78 | 0 | 3.5 | 293 | 72 | 85 | 86 | 82 | 83 |
| 08/29/2026 | 13:00:00 | 241 | 93 | 12:58:00 | 90 | 12:01:00 | 93 | 52 | 12:10:01 | 41 | 12:58:01 | 42.94 | 0 | 2.6 | 103 | 72 | 87 | 88 | 84 | 84 |
| 08/29/2026 | 14:00:00 | 241 | 94 | 13:31:04 | 92 | 13:20:01 | 93 | 50 | 13:00:05 | 40 | 13:32:02 | 41.48 | 0 | 2.9 | 171 | 67 | 88 | 89 | 85 | 85 |
| 08/29/2026 | 15:00:00 | 241 | 95 | 14:18:03 | 92 | 14:05:02 | 93 | 49 | 14:07:02 | 40 | 14:18:03 | 41.77 | 0 | 2.6 | 139 | 49 | 89 | 89 | 86 | 86 |
| 08/29/2026 | 16:00:00 | 241 | 95 | 15:22:02 | 92 | 15:32:04 | 93 | 49 | 15:56:05 | 40 | 15:21:03 | 45.69 | 0 | 2.2 | 84 | 32 | 89 | 89 | 86 | 87 |
| 08/29/2026 | 17:00:00 | 241 | 93 | 16:52:05 | 91 | 16:27:05 | 92 | 48 | 16:28:03 | 43 | 16:14:05 | 46.81 | 0 | 3.5 | 18 | 26 | 89 | 88 | 87 | 87 |
| 08/29/2026 | 18:00:00 | 241 | 92 | 17:00:01 | 88 | 17:59:05 | 88 | 63 | 17:56:01 | 44 | 17:13:03 | 62.64 | 0 | 1.8 | 62 | 11 | 88 | 87 | 86 | 86 |
| 08/29/2026 | 19:00:00 | 241 | 88 | 18:00:00 | 81 | 18:59:03 | 81 | 81 | 18:59:01 | 62 | 18:00:04 | 80.6 | 0 | 0.4 | 82 | 1 | 87 | 86 | 86 | 86 |
| 08/29/2026 | 20:00:00 | 241 | 81 | 19:00:01 | 78 | 19:59:05 | 78 | 88 | 19:51:00 | 80 | 19:02:01 | 87.8 | 0 | 0.1 | 63 | 0 | 86 | 85 | 86 | 85 |
| 08/29/2026 | 21:00:00 | 241 | 78 | 20:00:00 | 76 | 20:47:00 | 76 | 91 | 20:48:00 | 87 | 20:20:00 | 90.9 | 0 | 0.1 | 30 | 0 | 85 | 84 | 85 | 85 |
| 08/29/2026 | 22:00:00 | 241 | 76 | 21:00:01 | 75 | 21:59:01 | 75 | 95 | 21:53:02 | 91 | 21:00:00 | 95 | 0 | 0.0 | 0 | 0 | 84 | 84 | 85 | 84 |
| 08/29/2026 | 23:00:00 | 241 | 75 | 22:51:01 | 74 | 22:22:03 | 74 | 96 | 22:37:01 | 95 | 22:55:00 | 95 | 0 | 0.1 | 118 | 0 | 83 | 83 | 84 | 84 |
| 08/30/2026 | 0:00:00 | 242 | 74 | 23:00:00 | 73 | 23:46:05 | 74 | 98 | 23:57:03 | 95 | 23:00:04 | 97.5 | 0 | 0.0 | 100 | 0 | 83 | 82 | 84 | 83 |
| 08/30/2026 | 1:00:00 | 242 | 75 | 0:27:00 | 73 | 0:03:03 | 74 | 98 | 0:00:01 | 92 | 0:27:04 | 95 | 0 | 0.7 | 73 | 0 | 82 | 82 | 83 | 83 |
| 08/30/2026 | 2:00:00 | 242 | 75 | 1:14:00 | 74 | 1:59:04 | 74 | 96 | 1:59:05 | 94 | 1:23:00 | 95.7 | 0 | 0.9 | 73 | 0 | 82 | 82 | 83 | 83 |
| 08/30/2026 | 3:00:00 | 242 | 74 | 2:00:01 | 73 | 2:57:03 | 73 | 98 | 2:51:04 | 96 | 2:01:01 | 98.1 | 0 | 0.2 | 86 | 0 | 81 | 81 | 82 | 82 |
| 08/30/2026 | 4:00:00 | 242 | 73 | 3:14:03 | 72 | 3:41:00 | 72 | 99 | 3:55:04 | 98 | 3:30:05 | 98.6 | 0 | 0.4 | 105 | 0 | 81 | 81 | 82 | 82 |
| 08/30/2026 | 5:00:00 | 242 | 72 | 4:01:02 | 72 | 4:57:05 | 72 | 99 | 4:31:00 | 98 | 4:08:00 | 99 | 0 | 0.2 | 105 | 0 | 81 | 80 | 82 | 82 |
| 08/30/2026 | 6:00:00 | 242 | 73 | 5:59:03 | 72 | 5:00:00 | 73 | 99 | 5:08:02 | 99 | 5:31:05 | 98.8 | 0 | 0.9 | 103 | 1 | 80 | 80 | 81 | 81 |
| 08/30/2026 | 7:00:00 | 242 | 78 | 6:59:05 | 73 | 6:00:00 | 78 | 99 | 6:00:00 | 89 | 6:59:03 | 90 | 0 | 2.0 | 118 | 11 | 80 | 80 | 81 | 81 |
| 08/30/2026 | 8:00:00 | 242 | 82 | 7:59:04 | 78 | 7:00:00 | 82 | 91 | 7:00:02 | 80 | 7:55:02 | 80.2 | 0 | 2.9 | 162 | 27 | 81 | 81 | 81 | 81 |
| 08/30/2026 | 9:00:00 | 242 | 85 | 8:57:04 | 82 | 8:00:00 | 85 | 82 | 8:01:01 | 70 | 8:57:01 | 70.89 | 0 | 3.7 | 165 | 43 | 82 | 82 | 81 | 82 |
| 08/30/2026 | 10:00:00 | 242 | 89 | 9:54:00 | 85 | 9:03:00 | 88 | 74 | 9:03:01 | 60 | 9:59:04 | 64.79 | 0 | 3.7 | 154 | 58 | 83 | 84 | 82 | 82 |
| 08/30/2026 | 11:00:00 | 242 | 89 | 11:00:00 | 87 | 10:38:05 | 89 | 67 | 10:00:01 | 58 | 10:32:03 | 61.79 | 0 | 4.1 | 147 | 42 | 85 | 85 | 83 | 83 |
| 08/30/2026 | 12:00:00 | 242 | 91 | 11:34:04 | 89 | 11:45:01 | 90 | 63 | 11:10:01 | 54 | 11:38:04 | 59.25 | 0 | 5.2 | 133 | 65 | 86 | 86 | 84 | 84 |
| 08/30/2026 | 13:00:00 | 242 | 91 | 12:15:05 | 89 | 12:26:04 | 91 | 61 | 12:42:00 | 52 | 12:59:04 | 53.17 | 0 | 4.7 | 143 | 44 | 87 | 87 | 84 | 85 |
| 08/30/2026 | 14:00:00 | 242 | 93 | 13:59:04 | 90 | 13:35:04 | 93 | 58 | 13:07:01 | 47 | 13:54:03 | 50.05 | 0 | 3.8 | 134 | 49 | 87 | 87 | 85 | 85 |
| 08/30/2026 | 15:00:00 | 242 | 93 | 14:21:00 | 89 | 14:58:05 | 89 | 59 | 14:58:00 | 47 | 14:04:00 | 57.83 | 0 | 4.1 | 122 | 28 | 88 | 87 | 85 | 86 |
| 08/30/2026 | 16:00:00 | 242 | 92 | 15:43:05 | 88 | 15:30:04 | 89 | 59 | 15:33:00 | 50 | 15:45:02 | 54.24 | 0 | 3.4 | 128 | 12 | 87 | 87 | 86 | 86 |
| 08/30/2026 | 17:00:00 | 242 | 92 | 16:44:02 | 88 | 16:08:04 | 91 | 59 | 16:15:05 | 49 | 16:42:01 | 54.44 | 0 | 2.7 | 130 | 19 | 86 | 86 | 85 | 85 |
| 08/30/2026 | 18:00:00 | 242 | 91 | 17:09:03 | 88 | 17:59:01 | 88 | 60 | 17:59:04 | 51 | 17:13:03 | 58.31 | 0 | 2.4 | 157 | 11 | 86 | 86 | 85 | 85 |
| 08/30/2026 | 19:00:00 | 242 | 88 | 18:00:02 | 80 | 18:59:02 | 80 | 81 | 18:59:00 | 58 | 18:00:00 | 80.5 | 0 | 0.2 | 95 | 1 | 85 | 85 | 85 | 85 |
| 08/30/2026 | 20:00:00 | 242 | 80 | 19:00:00 | 76 | 20:00:00 | 76 | 91 | 20:00:00 | 81 | 19:00:00 | 90.9 | 0 | 0.0 | 74 | 0 | 84 | 84 | 85 | 84 |
| 08/30/2026 | 21:00:00 | 242 | 76 | 20:09:05 | 75 | 20:48:04 | 75 | 95 | 20:51:05 | 91 | 20:11:02 | 94.9 | 0 | 0.0 | 0 | 0 | 84 | 83 | 84 | 84 |
| 08/30/2026 | 22:00:00 | 242 | 75 | 21:03:01 | 74 | 21:33:01 | 74 | 96 | 21:31:03 | 95 | 21:11:01 | 94.9 | 0 | 0.0 | 0 | 0 | 83 | 83 | 84 | 83 |
| 08/30/2026 | 23:00:00 | 242 | 74 | 22:00:04 | 73 | 22:47:04 | 73 | 97 | 22:52:05 | 95 | 22:00:01 | 97.2 | 0 | 0.0 | 0 | 0 | 82 | 82 | 83 | 83 |
| 08/31/2026 | 0:00:00 | 243 | 74 | 23:17:03 | 73 | 23:06:03 | 73 | 97 | 23:08:04 | 94 | 23:29:03 | 95.7 | 0 | 0.4 | 119 | 0 | 82 | 82 | 83 | 83 |
| 08/31/2026 | 1:00:00 | 243 | 73 | 0:01:00 | 73 | 0:59:00 | 73 | 97 | 0:46:04 | 96 | 0:02:03 | 96.7 | 0 | 0.2 | 323 | 0 | 81 | 81 | 82 | 82 |
| 08/31/2026 | 2:00:00 | 243 | 73 | 1:00:01 | 72 | 1:52:04 | 72 | 98 | 1:40:00 | 97 | 1:00:02 | 98.1 | 0 | 0.3 | 6 | 0 | 81 | 81 | 82 | 82 |
| 08/31/2026 | 3:00:00 | 243 | 72 | 2:13:01 | 71 | 2:54:04 | 72 | 99 | 2:57:03 | 98 | 2:22:03 | 98.4 | 0 | 0.3 | 38 | 0 | 81 | 81 | 82 | 82 |
| 08/31/2026 | 4:00:00 | 243 | 72 | 3:00:00 | 71 | 3:55:00 | 71 | 99 | 3:58:01 | 98 | 3:02:01 | 99.1 | 0 | 0.1 | 134 | 0 | 80 | 80 | 81 | 81 |
| 08/31/2026 | 5:00:00 | 243 | 71 | 4:30:00 | 71 | 4:21:02 | 71 | 100 | 4:37:05 | 99 | 4:02:00 | 99.3 | 0 | 0.2 | 134 | 0 | 80 | 80 | 81 | 81 |
| 08/31/2026 | 6:00:00 | 243 | 71 | 5:59:04 | 71 | 5:31:00 | 71 | 99 | 5:09:01 | 99 | 5:46:00 | 99.3 | 0 | 0.2 | 134 | 1 | 80 | 80 | 81 | 81 |
| 08/31/2026 | 7:00:00 | 243 | 78 | 6:58:02 | 71 | 6:00:01 | 78 | 99 | 6:19:04 | 87 | 6:59:02 | 87.6 | 0 | 0.4 | 77 | 11 | 80 | 80 | 81 | 81 |
| 08/31/2026 | 8:00:00 | 243 | 83 | 7:57:00 | 78 | 7:00:00 | 83 | 88 | 7:00:02 | 75 | 7:57:02 | 76.52 | 0 | 1.6 | 82 | 27 | 80 | 81 | 81 | 81 |
| 08/31/2026 | 9:00:00 | 243 | 87 | 8:44:00 | 83 | 8:00:00 | 87 | 77 | 8:01:00 | 67 | 8:43:02 | 70.09 | 0 | 1.6 | 70 | 42 | 81 | 82 | 81 | 81 |
| 08/31/2026 | 10:00:00 | 243 | 90 | 9:28:02 | 87 | 9:10:03 | 90 | 71 | 9:06:03 | 59 | 9:28:04 | 62.03 | 0 | 2.1 | 134 | 56 | 83 | 84 | 82 | 82 |
| 08/31/2026 | 11:00:00 | 243 | 92 | 10:59:04 | 89 | 10:26:00 | 92 | 64 | 10:13:04 | 54 | 10:53:05 | 56.62 | 0 | 2.4 | 133 | 63 | 85 | 86 | 83 | 83 |
| 08/31/2026 | 12:00:00 | 243 | 94 | 12:00:00 | 91 | 11:03:01 | 94 | 60 | 11:03:02 | 50 | 11:35:01 | 53.1 | 0 | 3.2 | 88 | 77 | 87 | 88 | 84 | 84 |
| 08/31/2026 | 13:00:00 | 243 | 94 | 12:02:01 | 92 | 12:45:05 | 93 | 58 | 12:13:05 | 48 | 12:57:04 | 49.96 | 0 | 3.9 | 67 | 65 | 89 | 89 | 85 | 86 |
| 08/31/2026 | 14:00:00 | 243 | 95 | 13:32:01 | 93 | 13:50:05 | 95 | 55 | 13:03:01 | 44 | 13:36:03 | 48.69 | 0 | 3.9 | 113 | 63 | 90 | 90 | 86 | 86 |
| 08/31/2026 | 15:00:00 | 243 | 96 | 14:36:00 | 94 | 14:01:02 | 95 | 50 | 14:31:02 | 42 | 14:17:04 | 43.7 | 0 | 4.0 | 137 | 49 | 90 | 90 | 87 | 87 |
| 08/31/2026 | 16:00:00 | 243 | 96 | 15:45:01 | 94 | 15:16:02 | 95 | 47 | 15:00:04 | 42 | 15:43:02 | 44.86 | 0 | 4.4 | 132 | 28 | 90 | 90 | 87 | 87 |
| 08/31/2026 | 17:00:00 | 243 | 95 | 16:10:04 | 91 | 16:59:05 | 91 | 53 | 16:55:03 | 43 | 16:04:03 | 52.69 | 0 | 3.5 | 126 | 19 | 89 | 89 | 87 | 87 |
| 08/31/2026 | 18:00:00 | 243 | 91 | 17:00:00 | 89 | 18:00:00 | 89 | 63 | 17:59:03 | 52 | 17:00:02 | 63.03 | 0 | 1.4 | 109 | 7 | 88 | 88 | 87 | 87 |
| 08/31/2026 | 19:00:00 | 243 | 89 | 18:00:00 | 82 | 18:59:05 | 82 | 81 | 19:00:00 | 62 | 18:00:04 | 80.8 | 0 | 0.0 | 33 | 0 | 87 | 87 | 87 | 86 |
| 08/31/2026 | 20:00:00 | 243 | 82 | 19:00:01 | 79 | 19:56:01 | 79 | 88 | 20:00:00 | 81 | 19:00:00 | 88.3 | 0 | 0.0 | 0 | 0 | 86 | 86 | 86 | 86 |
| 08/31/2026 | 21:00:00 | 243 | 79 | 20:04:04 | 77 | 20:58:01 | 77 | 92 | 20:58:03 | 87 | 20:04:02 | 91.5 | 0 | 0.0 | 0 | 0 | 85 | 85 | 86 | 85 |
| 08/31/2026 | 22:00:00 | 243 | 77 | 21:00:01 | 76 | 21:59:03 | 76 | 94 | 21:41:04 | 92 | 21:00:00 | 93.5 | 0 | 0.2 | 185 | 0 | 85 | 84 | 85 | 85 |
| 08/31/2026 | 23:00:00 | 243 | 76 | 22:01:01 | 75 | 22:59:02 | 75 | 96 | 22:22:00 | 94 | 22:00:00 | 95.3 | 0 | 0.0 | 0 | 0 | 84 | 84 | 85 | 84 |
| 09/01/2026 | 0:00:00 | 244 | 75 | 23:00:00 | 74 | 23:56:01 | 74 | 98 | 23:59:01 | 95 | 23:01:05 | 97.7 | 0 | 0.0 | 0 | 0 | 83 | 83 | 84 | 84 |
| 09/01/2026 | 1:00:00 | 244 | 75 | 0:02:01 | 74 | 0:51:02 | 74 | 98 | 0:19:02 | 97 | 0:35:05 | 97.6 | 0 | 0.0 | 192 | 0 | 83 | 83 | 84 | 83 |
| 09/01/2026 | 2:00:00 | 244 | 74 | 1:14:03 | 73 | 1:55:05 | 73 | 98 | 1:57:02 | 97 | 1:20:02 | 98.3 | 0 | 0.1 | 192 | 0 | 82 | 82 | 83 | 83 |
| 09/01/2026 | 3:00:00 | 244 | 74 | 2:15:02 | 73 | 2:54:03 | 73 | 99 | 2:55:03 | 98 | 2:25:01 | 98.6 | 0 | 0.2 | 192 | 0 | 82 | 82 | 83 | 83 |
| 09/01/2026 | 4:00:00 | 244 | 73 | 3:00:00 | 72 | 3:56:00 | 72 | 99 | 3:21:01 | 98 | 3:30:00 | 99 | 0 | 0.2 | 192 | 0 | 81 | 81 | 83 | 82 |
| 09/01/2026 | 5:00:00 | 244 | 73 | 4:00:01 | 72 | 4:09:01 | 72 | 99 | 4:24:05 | 99 | 4:08:01 | 99.3 | 0 | 0.1 | 192 | 0 | 81 | 81 | 82 | 82 |
| 09/01/2026 | 6:00:00 | 244 | 73 | 6:00:00 | 72 | 5:40:05 | 73 | 100 | 5:49:00 | 99 | 5:09:02 | 99.8 | 0 | 0.0 | 192 | 1 | 81 | 81 | 82 | 82 |
| 09/01/2026 | 7:00:00 | 244 | 82 | 6:58:01 | 73 | 6:00:01 | 82 | 100 | 6:23:00 | 78 | 6:59:03 | 78.67 | 0 | 0.0 | 192 | 11 | 81 | 81 | 82 | 81 |
| 09/01/2026 | 8:00:00 | 244 | 86 | 8:00:00 | 81 | 7:13:02 | 86 | 82 | 7:04:03 | 71 | 7:59:04 | 72.08 | 0 | 0.5 | 174 | 27 | 81 | 82 | 82 | 82 |
| 09/01/2026 | 9:00:00 | 244 | 89 | 8:58:04 | 85 | 8:09:01 | 89 | 74 | 8:16:01 | 64 | 8:59:00 | 66.77 | 0 | 2.3 | 341 | 42 | 82 | 83 | 82 | 82 |
| 09/01/2026 | 10:00:00 | 244 | 92 | 9:53:04 | 88 | 9:03:01 | 92 | 67 | 9:00:01 | 52 | 9:58:05 | 54.05 | 0 | 2.4 | 260 | 55 | 84 | 85 | 83 | 83 |
| 09/01/2026 | 11:00:00 | 244 | 95 | 10:48:05 | 92 | 10:11:01 | 94 | 58 | 10:14:05 | 47 | 10:55:02 | 48.71 | 0 | 2.3 | 230 | 70 | 86 | 87 | 83 | 84 |
| 09/01/2026 | 12:00:00 | 244 | 95 | 11:07:00 | 92 | 11:47:04 | 94 | 55 | 11:12:03 | 46 | 11:20:05 | 48.66 | 0 | 3.4 | 107 | 57 | 88 | 89 | 85 | 85 |
| 09/01/2026 | 13:00:00 | 244 | 96 | 12:50:03 | 93 | 12:08:04 | 95 | 56 | 12:59:00 | 44 | 12:44:03 | 48.14 | 0 | 3.5 | 110 | 60 | 89 | 89 | 86 | 86 |
| 09/01/2026 | 14:00:00 | 244 | 97 | 13:09:04 | 93 | 13:24:05 | 97 | 52 | 13:54:04 | 41 | 13:49:05 | 45.13 | 0 | 4.2 | 137 | 57 | 90 | 90 | 86 | 87 |
| 09/01/2026 | 15:00:00 | 244 | 98 | 14:38:03 | 96 | 14:10:03 | 97 | 47 | 14:00:01 | 37 | 14:58:05 | 39.53 | 0 | 4.1 | 154 | 48 | 90 | 90 | 87 | 87 |
| 09/01/2026 | 16:00:00 | 244 | 98 | 15:06:04 | 97 | 15:52:01 | 97 | 43 | 15:53:03 | 36 | 15:15:00 | 40.37 | 0 | 3.9 | 126 | 36 | 90 | 90 | 87 | 88 |
| 09/01/2026 | 17:00:00 | 244 | 98 | 16:28:01 | 94 | 16:59:04 | 94 | 48 | 16:59:01 | 38 | 16:08:05 | 47.32 | 0 | 3.5 | 116 | 23 | 90 | 89 | 88 | 88 |
| 09/01/2026 | 18:00:00 | 244 | 94 | 17:17:04 | 90 | 18:00:00 | 90 | 60 | 17:56:01 | 46 | 17:22:04 | 56.65 | 0 | 1.0 | 70 | 9 | 89 | 88 | 88 | 87 |
| 09/01/2026 | 19:00:00 | 244 | 91 | 18:00:00 | 82 | 18:58:01 | 83 | 79 | 18:55:05 | 56 | 18:00:01 | 75 | 0 | 0.1 | 54 | 0 | 88 | 87 | 87 | 87 |
| 09/01/2026 | 20:00:00 | 244 | 83 | 19:00:00 | 79 | 19:57:02 | 79 | 87 | 19:48:03 | 74 | 19:03:00 | 85 | 0 | 0.0 | 32 | 0 | 87 | 86 | 87 | 86 |
| 09/01/2026 | 21:00:00 | 244 | 79 | 20:00:04 | 78 | 20:54:04 | 78 | 89 | 20:57:00 | 85 | 20:00:00 | 88.5 | 0 | 0.1 | 76 | 0 | 86 | 86 | 86 | 86 |
| 09/01/2026 | 22:00:00 | 244 | 79 | 21:11:02 | 77 | 21:50:03 | 78 | 89 | 21:39:04 | 85 | 21:10:03 | 88.5 | 0 | 0.6 | 76 | 0 | 85 | 85 | 86 | 85 |
| 09/01/2026 | 23:00:00 | 244 | 78 | 22:00:01 | 76 | 22:47:05 | 76 | 94 | 22:54:04 | 88 | 22:00:04 | 92.6 | 0 | 0.1 | 69 | 0 | 85 | 84 | 85 | 85 |
| 09/02/2026 | 0:00:00 | 245 | 76 | 23:03:01 | 75 | 23:55:01 | 75 | 95 | 0:00:00 | 92 | 23:02:05 | 94.8 | 0 | 0.0 | 75 | 0 | 84 | 84 | 85 | 84 |
| 09/02/2026 | 1:00:00 | 245 | 75 | 0:19:00 | 74 | 0:49:05 | 75 | 96 | 0:52:01 | 95 | 0:19:05 | 95.1 | 0 | 0.2 | 75 | 0 | 83 | 83 | 84 | 84 |
| 09/02/2026 | 2:00:00 | 245 | 75 | 1:00:00 | 73 | 1:57:05 | 73 | 97 | 1:59:04 | 95 | 1:01:01 | 97.1 | 0 | 0.0 | 0 | 0 | 83 | 83 | 84 | 84 |
| 09/02/2026 | 3:00:00 | 245 | 74 | 2:04:01 | 73 | 2:28:01 | 73 | 98 | 2:56:05 | 97 | 2:23:04 | 97.3 | 0 | 0.0 | 75 | 0 | 82 | 82 | 83 | 83 |
| 09/02/2026 | 4:00:00 | 245 | 74 | 3:29:01 | 73 | 3:02:01 | 73 | 98 | 3:07:05 | 96 | 3:34:01 | 97.1 | 0 | 0.6 | 82 | 0 | 82 | 82 | 83 | 83 |
| 09/02/2026 | 5:00:00 | 245 | 73 | 4:00:03 | 72 | 4:59:02 | 72 | 98 | 4:56:03 | 96 | 4:32:02 | 97.8 | 0 | 0.0 | 103 | 0 | 82 | 81 | 83 | 82 |
| 09/02/2026 | 6:00:00 | 245 | 73 | 5:59:05 | 72 | 5:21:01 | 73 | 99 | 5:39:02 | 98 | 5:00:00 | 98.3 | 0 | 0.0 | 103 | 1 | 81 | 81 | 82 | 82 |
| 09/02/2026 | 7:00:00 | 245 | 80 | 6:59:05 | 73 | 6:00:00 | 80 | 98 | 6:00:01 | 85 | 6:38:01 | 85.4 | 0 | 0.1 | 78 | 11 | 81 | 81 | 82 | 82 |
| 09/02/2026 | 8:00:00 | 245 | 85 | 7:59:05 | 80 | 7:00:00 | 85 | 86 | 7:02:04 | 69 | 7:58:04 | 70.95 | 0 | 2.1 | 342 | 26 | 82 | 82 | 82 | 82 |
| 09/02/2026 | 9:00:00 | 245 | 90 | 9:00:00 | 85 | 8:00:02 | 90 | 73 | 8:02:02 | 59 | 8:56:03 | 62.06 | 0 | 2.8 | 316 | 42 | 83 | 83 | 82 | 82 |
| 09/02/2026 | 10:00:00 | 245 | 94 | 9:53:01 | 90 | 9:00:00 | 93 | 63 | 9:07:04 | 53 | 9:56:03 | 53.34 | 0 | 2.0 | 271 | 54 | 84 | 85 | 83 | 83 |
| 09/02/2026 | 11:00:00 | 245 | 96 | 10:59:04 | 93 | 10:09:03 | 96 | 57 | 10:01:02 | 42 | 10:53:01 | 42.35 | 0 | 3.0 | 149 | 66 | 86 | 87 | 84 | 84 |
| 09/02/2026 | 12:00:00 | 245 | 97 | 11:22:03 | 94 | 11:36:05 | 97 | 52 | 11:40:00 | 41 | 11:23:03 | 43.98 | 0 | 2.8 | 143 | 60 | 88 | 89 | 85 | 85 |
| 09/02/2026 | 13:00:00 | 245 | 98 | 12:03:04 | 95 | 12:57:00 | 95 | 49 | 12:01:00 | 42 | 12:35:05 | 46.22 | 0 | 3.3 | 107 | 63 | 89 | 90 | 86 | 86 |
| 09/02/2026 | 14:00:00 | 245 | 98 | 13:46:00 | 95 | 13:00:01 | 98 | 48 | 13:27:03 | 38 | 13:58:01 | 39.89 | 0 | 3.8 | 149 | 66 | 90 | 91 | 87 | 87 |
| 09/02/2026 | 15:00:00 | 245 | 99 | 14:43:03 | 97 | 14:35:01 | 98 | 45 | 14:01:03 | 35 | 14:54:03 | 38.89 | 0 | 4.7 | 121 | 44 | 91 | 91 | 87 | 88 |
| 09/02/2026 | 16:00:00 | 245 | 99 | 15:04:05 | 98 | 15:59:05 | 98 | 42 | 15:37:05 | 35 | 15:05:04 | 40.12 | 0 | 5.0 | 110 | 33 | 91 | 90 | 88 | 88 |
| 09/02/2026 | 17:00:00 | 245 | 98 | 16:00:00 | 97 | 16:48:02 | 97 | 44 | 16:51:03 | 39 | 16:06:01 | 41.51 | 0 | 4.5 | 120 | 20 | 90 | 89 | 88 | 88 |
| 09/02/2026 | 18:00:00 | 245 | 97 | 17:00:00 | 92 | 17:59:04 | 92 | 55 | 17:57:03 | 42 | 17:01:01 | 52.95 | 0 | 2.1 | 122 | 9 | 89 | 89 | 88 | 88 |
| 09/02/2026 | 19:00:00 | 245 | 92 | 18:00:00 | 83 | 18:59:04 | 83 | 74 | 18:59:05 | 53 | 18:01:05 | 74.38 | 0 | 0.2 | 121 | 0 | 88 | 88 | 87 | 87 |
| 09/02/2026 | 20:00:00 | 245 | 83 | 19:00:00 | 81 | 19:59:04 | 81 | 83 | 19:59:03 | 74 | 19:00:01 | 82.4 | 0 | 0.1 | 121 | 0 | 87 | 87 | 87 | 87 |
| 09/02/2026 | 21:00:00 | 245 | 81 | 20:00:00 | 80 | 20:45:00 | 80 | 85 | 20:44:01 | 82 | 20:50:01 | 83.5 | 0 | 0.4 | 117 | 0 | 86 | 86 | 86 | 86 |
| 09/02/2026 | 22:00:00 | 245 | 80 | 21:06:04 | 79 | 21:30:01 | 79 | 88 | 21:57:02 | 83 | 21:04:03 | 87.3 | 0 | 0.0 | 120 | 0 | 86 | 85 | 86 | 86 |
| 09/02/2026 | 23:00:00 | 245 | 79 | 22:00:02 | 77 | 23:00:00 | 77 | 91 | 22:59:05 | 87 | 22:01:02 | 90.6 | 0 | 0.0 | 120 | 0 | 85 | 85 | 85 | 85 |
| 09/03/2026 | 0:00:00 | 246 | 77 | 23:10:05 | 76 | 23:52:05 | 77 | 91 | 23:50:05 | 89 | 23:11:03 | 90.6 | 0 | 0.0 | 0 | 0 | 85 | 84 | 85 | 85 |
| 09/03/2026 | 1:00:00 | 246 | 77 | 0:00:03 | 76 | 0:48:02 | 76 | 93 | 0:43:03 | 91 | 0:16:02 | 92.5 | 0 | 0.1 | 119 | 0 | 84 | 84 | 85 | 84 |
| 09/03/2026 | 2:00:00 | 246 | 76 | 1:00:02 | 75 | 1:59:01 | 75 | 96 | 1:57:03 | 93 | 1:00:00 | 95.5 | 0 | 0.1 | 119 | 0 | 84 | 83 | 84 | 84 |
| 09/03/2026 | 3:00:00 | 246 | 75 | 2:22:00 | 75 | 2:01:01 | 75 | 96 | 2:46:03 | 95 | 2:28:00 | 95.9 | 0 | 0.1 | 119 | 0 | 83 | 83 | 84 | 84 |
| 09/03/2026 | 4:00:00 | 246 | 75 | 3:32:05 | 75 | 3:57:03 | 75 | 97 | 3:58:03 | 95 | 3:37:03 | 96.4 | 0 | 0.0 | 119 | 0 | 83 | 83 | 84 | 83 |
| 09/03/2026 | 5:00:00 | 246 | 75 | 4:13:02 | 74 | 4:33:03 | 74 | 97 | 4:42:04 | 96 | 4:00:01 | 96.8 | 0 | 0.2 | 119 | 0 | 82 | 82 | 83 | 83 |
| 09/03/2026 | 6:00:00 | 246 | 75 | 5:59:03 | 74 | 5:15:04 | 75 | 98 | 5:23:05 | 96 | 6:00:00 | 96.1 | 0 | 0.3 | 119 | 1 | 82 | 82 | 83 | 83 |
| 09/03/2026 | 7:00:00 | 246 | 82 | 6:59:00 | 75 | 6:00:00 | 82 | 96 | 6:00:01 | 79 | 7:00:00 | 79.34 | 0 | 0.7 | 112 | 11 | 82 | 82 | 83 | 83 |
| 09/03/2026 | 8:00:00 | 246 | 87 | 7:57:04 | 82 | 7:00:04 | 87 | 81 | 7:06:00 | 68 | 7:58:04 | 70.09 | 0 | 1.4 | 96 | 25 | 82 | 83 | 83 | 83 |
| 09/03/2026 | 9:00:00 | 246 | 92 | 8:56:03 | 87 | 8:00:05 | 91 | 72 | 8:07:01 | 57 | 8:57:00 | 58.61 | 0 | 2.2 | 88 | 41 | 83 | 84 | 83 | 83 |
| 09/03/2026 | 10:00:00 | 246 | 95 | 9:56:05 | 91 | 9:03:04 | 94 | 60 | 9:00:02 | 50 | 9:57:01 | 54.02 | 0 | 3.0 | 73 | 54 | 85 | 86 | 83 | 84 |
| Average | 82.64 | 80.09 | 81.4 | 80.63 | 72.93 | 76.51 | 0 | 1.75 | 19.21 | 83.97 | 83.97 | 83.65 | 83.6 | |||||||
| Total | 0 |